ASW weather

Aswan International Airport
Aswan, Aswan Governorate, Egypt

Public forecast

Using degrees Celsius for public forecast. Weather courtesy of forecast.io.

Current aviation weather report (METAR) for Aswan International Airport

Retrieved 2019/10/20 22:00 UTC (51 minutes ago):

HESN 202200Z 02005KT CAVOK 27/00 Q1013 NOSIG

Aviation forecast (TAF) for Aswan International Airport

Retrieved 2019/10/20 18:47 UTC (4 hours ago):

TAF HESN 201700Z 2018/2124 36012KT CAVOK